Ana Sayfa
METAR-TAF:

METAR-TAF

Havaalanları :

Yakutsk Havalimanı

Yakutsk, Rusya

Enlem: 62-01N, Boylam: 129-43E, yükseklik: 103 m

Güncel hava durumu gözlemi

Rapor saat 17:30 UTC de 30 dakika önce yapıldı.
Rüzgar güney/güneybatıdan 2 kt
Sıcaklık -25°C
Nem 83%
Basınç 1018 hPa
Görüş mesafesi 10 km veya daha fazla
1500 m altında bulut yok ve kümülonimbus yok

METAR: UEEE 241730Z 20001MPS CAVOK M25/M27 Q1018 R23L/450150 NOSIG RMK QFE755

Saat: 03:00 (18:00 UTC)

Tahmin

Rapor saat 17:00 UTC de 1 saat ve 0 dakika önce yapıldı.
Ayın 24'si saat 18 UTC'den ayın 25'si saat 24 UTC'ye kadar geçerli Tahmin
Rüzgar güney/güneybatıdan 6 kt
Görüş mesafesi 10 km veya daha fazla
1500 m altında bulut yok ve kümülonimbus yok
Geçici
ayın 24'si saat 18 UTC'den ayın 25'si saat 12 UTC'ye kadar
Görüş mesafesi: 5000 m
hafif kar

TAF: UEEE 241700Z 2418/2524 21003MPS CAVOK TEMPO 2418/2512 5000 -SN NSC

4.000'den fazla havaalanı için hava durumu gözlemleri ve tahminleri (METAR ve TAF raporları).

Kullanılabilir istasyonlar harita üzerinde sarı ve kırmızı noktalarla gösterilir.

İstasyonun adını görmek için fareyi noktanın üzerinde gezdirin.

Sonrasında hava gözlem ve tahminlerini görmek için tıklayın.

Haritayı değiştirmek için: yaklaştırmak için siyah artı işaretli yeşil düğmeye ve uzaklaştırmak için de eksi işaretli düğmeye hızla tıklayın; bitişik haritalar için yeşil okları kullanın.


METAR-TAF: